createdAt,value
2022-09-11T00:01:29.303Z,5.10
2022-09-11T00:03:31.650Z,4.90
2022-09-11T00:05:39.017Z,5.40
2022-09-11T00:07:41.035Z,5.00
2022-09-11T00:09:43.011Z,5.13
2022-09-11T00:11:45.159Z,4.73
2022-09-11T00:13:51.790Z,5.70
2022-09-11T00:15:54.177Z,6.20
2022-09-11T00:17:57.439Z,5.43
2022-09-11T00:20:00.947Z,5.43
2022-09-11T00:22:03.098Z,5.47
2022-09-11T00:24:05.538Z,5.63
2022-09-11T00:26:07.792Z,6.90
2022-09-11T00:28:16.019Z,7.63
2022-09-11T00:30:18.513Z,6.30
2022-09-11T00:32:20.989Z,6.47
2022-09-11T00:34:22.999Z,7.17
2022-09-11T00:36:31.207Z,7.20
2022-09-11T00:38:36.605Z,7.00
2022-09-11T00:40:48.187Z,7.23
2022-09-11T00:42:54.192Z,7.87
2022-09-11T00:45:00.543Z,8.07
2022-09-11T00:47:06.359Z,7.70
2022-09-11T00:49:45.683Z,8.67
2022-09-11T00:51:53.215Z,7.80
2022-09-11T00:53:57.340Z,9.30
2022-09-11T00:56:02.647Z,10.00
2022-09-11T00:58:13.201Z,7.83
2022-09-11T01:00:15.773Z,9.40
2022-09-11T01:02:23.217Z,9.73
2022-09-11T01:04:29.273Z,9.23
2022-09-11T01:06:32.475Z,8.90
2022-09-11T01:08:38.209Z,10.33
2022-09-11T01:11:00.112Z,9.03
2022-09-11T01:13:33.572Z,7.97
2022-09-11T01:15:35.545Z,10.80
2022-09-11T01:17:56.037Z,9.63
2022-09-11T01:20:18.863Z,10.63
2022-09-11T01:22:50.159Z,9.93
2022-09-11T01:25:10.681Z,10.20
2022-09-11T01:27:37.411Z,10.33
2022-09-11T01:29:55.491Z,10.20
2022-09-11T01:32:01.251Z,9.57
2022-09-11T01:34:15.999Z,9.63
2022-09-11T01:36:21.186Z,10.30
2022-09-11T01:38:35.017Z,11.03
2022-09-11T01:40:46.064Z,10.53
2022-09-11T01:42:52.088Z,10.50
2022-09-11T01:44:57.519Z,10.10
2022-09-11T01:47:02.730Z,10.60
2022-09-11T01:49:13.220Z,10.70
2022-09-11T01:51:18.571Z,11.03
2022-09-11T01:53:24.069Z,12.20
2022-09-11T01:55:34.727Z,11.83
2022-09-11T01:57:42.339Z,11.90
2022-09-11T01:59:48.427Z,10.30
2022-09-11T02:01:55.354Z,11.13
2022-09-11T02:04:18.057Z,10.90
2022-09-11T02:06:33.146Z,11.60
2022-09-11T02:08:44.141Z,12.00
2022-09-11T02:10:52.176Z,10.60
2022-09-11T02:13:04.687Z,12.03
2022-09-11T02:15:08.190Z,11.73
2022-09-11T02:17:24.696Z,11.10
2022-09-11T02:19:28.961Z,11.13
2022-09-11T02:21:32.411Z,11.07
2022-09-11T02:23:34.473Z,13.70
2022-09-11T02:25:36.805Z,11.47
2022-09-11T02:27:40.786Z,11.73
2022-09-11T02:29:43.056Z,12.20
2022-09-11T02:31:45.765Z,12.37
2022-09-11T02:33:49.097Z,12.23
2022-09-11T02:35:52.928Z,11.93
2022-09-11T02:38:00.511Z,13.63
2022-09-11T02:40:42.362Z,13.90
2022-09-11T02:42:48.346Z,11.90
2022-09-11T02:44:53.665Z,11.67
2022-09-11T02:47:08.099Z,11.90
2022-09-11T02:49:26.593Z,12.90
2022-09-11T02:51:34.977Z,12.03
2022-09-11T02:53:49.613Z,12.90
2022-09-11T02:56:09.796Z,11.90
2022-09-11T02:58:29.504Z,12.00
2022-09-11T03:00:32.391Z,12.80
2022-09-11T03:02:38.838Z,13.40
2022-09-11T03:04:42.173Z,13.93
2022-09-11T03:06:44.975Z,14.30
2022-09-11T03:08:50.013Z,14.00
2022-09-11T03:10:54.659Z,13.27
2022-09-11T03:12:58.671Z,12.73
2022-09-11T03:15:01.871Z,12.30
2022-09-11T03:17:05.263Z,12.13
2022-09-11T03:19:07.819Z,12.57
2022-09-11T03:21:11.524Z,12.67
2022-09-11T03:23:14.402Z,12.30
2022-09-11T03:25:16.755Z,10.90
2022-09-11T03:27:19.149Z,11.80
2022-09-11T03:29:21.831Z,12.87
2022-09-11T03:31:24.319Z,12.50
2022-09-11T03:33:26.575Z,12.47
2022-09-11T03:35:29.064Z,11.80
2022-09-11T03:37:31.340Z,11.50
2022-09-11T03:39:34.820Z,11.03
2022-09-11T03:41:36.869Z,11.40
2022-09-11T03:43:40.192Z,11.63
2022-09-11T03:45:44.704Z,12.50
2022-09-11T03:47:48.530Z,11.40
2022-09-11T03:49:51.280Z,11.00
2022-09-11T03:51:53.273Z,12.53
2022-09-11T03:53:55.947Z,12.03
2022-09-11T03:55:58.552Z,12.50
2022-09-11T03:58:00.587Z,12.43
2022-09-11T04:00:03.993Z,12.97
2022-09-11T04:02:24.107Z,13.50
2022-09-11T04:04:29.092Z,12.90
2022-09-11T04:06:33.057Z,13.40
2022-09-11T04:08:35.601Z,12.70
2022-09-11T04:10:39.102Z,12.40
2022-09-11T04:12:44.479Z,12.60
2022-09-11T04:14:46.778Z,13.37
2022-09-11T04:16:49.035Z,13.13
2022-09-11T04:18:54.443Z,12.57
2022-09-11T04:20:58.854Z,13.30
2022-09-11T04:23:01.030Z,12.43
2022-09-11T04:25:06.405Z,12.90
2022-09-11T04:27:09.263Z,12.83
2022-09-11T04:29:11.215Z,13.40
2022-09-11T04:31:14.820Z,12.80
2022-09-11T04:33:17.179Z,12.17
2022-09-11T04:35:19.441Z,14.47
2022-09-11T04:37:30.671Z,14.50
2022-09-11T04:39:32.815Z,16.17
2022-09-11T04:41:34.897Z,16.27
2022-09-11T04:43:39.645Z,18.33
2022-09-11T04:45:43.434Z,19.20
2022-09-11T04:47:46.862Z,22.33
2022-09-11T04:49:49.748Z,27.20
2022-09-11T04:51:51.747Z,24.50
2022-09-11T04:53:57.728Z,28.33
2022-09-11T04:56:09.176Z,30.53
2022-09-11T04:58:17.087Z,32.80
2022-09-11T05:00:19.234Z,26.57
2022-09-11T05:02:22.237Z,24.73
2022-09-11T05:04:28.040Z,25.40
2022-09-11T05:06:31.162Z,26.90
2022-09-11T05:08:36.747Z,25.67
2022-09-11T05:10:42.362Z,26.90
2022-09-11T05:12:44.959Z,25.37
2022-09-11T05:14:47.049Z,27.57
2022-09-11T05:16:49.397Z,28.43
2022-09-11T05:18:54.692Z,26.80
2022-09-11T05:21:02.071Z,26.70
2022-09-11T05:23:04.403Z,27.73
2022-09-11T05:25:06.713Z,27.43
2022-09-11T05:27:09.818Z,27.80
2022-09-11T05:29:15.001Z,26.60
2022-09-11T05:31:34.509Z,26.40
2022-09-11T05:33:37.184Z,26.90
2022-09-11T05:35:39.298Z,28.03
2022-09-11T05:37:41.451Z,26.17
2022-09-11T05:39:45.313Z,25.57
2022-09-11T05:41:53.076Z,26.70
2022-09-11T05:43:55.201Z,28.80
2022-09-11T05:45:59.270Z,27.00
2022-09-11T05:48:04.429Z,26.90
2022-09-11T05:50:10.965Z,26.93
2022-09-11T05:52:13.773Z,29.77
2022-09-11T05:54:16.842Z,27.00
2022-09-11T05:56:22.450Z,28.87
2022-09-11T05:58:31.773Z,28.63
2022-09-11T06:00:33.924Z,28.63
2022-09-11T06:02:35.943Z,30.00
2022-09-11T06:04:38.321Z,28.43
2022-09-11T06:06:41.846Z,26.47
2022-09-11T06:08:44.526Z,27.57
2022-09-11T06:10:46.794Z,27.47
2022-09-11T06:12:49.506Z,28.70
2022-09-11T06:14:51.520Z,30.07
2022-09-11T06:16:57.323Z,30.47
2022-09-11T06:19:02.205Z,28.10
2022-09-11T06:21:07.251Z,28.87
2022-09-11T06:23:15.888Z,28.70
2022-09-11T06:25:18.481Z,28.17
2022-09-11T06:27:20.543Z,26.67
2022-09-11T06:29:24.863Z,27.33
2022-09-11T06:31:27.573Z,28.90
2022-09-11T06:33:34.405Z,27.80
2022-09-11T06:35:36.509Z,27.17
2022-09-11T06:37:38.854Z,27.03
2022-09-11T06:39:43.303Z,27.37
2022-09-11T06:41:53.346Z,28.13
2022-09-11T06:44:01.265Z,26.63
2022-09-11T06:46:12.294Z,28.90
2022-09-11T06:48:18.975Z,28.77
2022-09-11T06:50:23.564Z,29.43
2022-09-11T06:52:43.000Z,27.33
2022-09-11T06:55:05.327Z,27.23
2022-09-11T06:57:07.524Z,26.20
2022-09-11T06:59:10.853Z,26.83
2022-09-11T07:01:14.831Z,27.87
2022-09-11T07:03:18.139Z,26.63
2022-09-11T07:05:25.723Z,26.73
2022-09-11T07:07:28.507Z,26.17
2022-09-11T07:09:30.845Z,26.47
2022-09-11T07:11:34.705Z,26.53
2022-09-11T07:13:38.211Z,24.70
2022-09-11T07:15:42.202Z,25.67
2022-09-11T07:17:44.397Z,26.70
2022-09-11T07:19:48.505Z,25.00
2022-09-11T07:21:52.046Z,26.03
2022-09-11T07:23:57.366Z,24.40
2022-09-11T07:26:02.637Z,23.90
2022-09-11T07:28:05.631Z,24.00
2022-09-11T07:30:08.754Z,23.40
2022-09-11T07:32:13.853Z,22.73
2022-09-11T07:34:16.607Z,22.80
2022-09-11T07:36:25.417Z,21.40
2022-09-11T07:38:30.019Z,20.03
2022-09-11T07:40:32.236Z,19.60
2022-09-11T07:42:35.880Z,18.80
2022-09-11T07:44:37.958Z,20.60
2022-09-11T07:46:41.513Z,21.30
2022-09-11T07:48:45.550Z,19.73
2022-09-11T07:51:04.473Z,20.40
2022-09-11T07:53:07.240Z,18.07
2022-09-11T07:55:10.128Z,18.40
2022-09-11T07:57:13.035Z,20.33
2022-09-11T07:59:18.181Z,19.20
2022-09-11T08:01:25.514Z,18.03
2022-09-11T08:03:31.321Z,19.37
2022-09-11T08:05:33.544Z,17.50
2022-09-11T08:07:35.960Z,17.50
2022-09-11T08:09:39.200Z,16.33
2022-09-11T08:11:44.794Z,17.90
2022-09-11T08:13:51.257Z,17.10
2022-09-11T08:15:55.227Z,17.27
2022-09-11T08:17:57.949Z,17.03
2022-09-11T08:20:00.588Z,18.80
2022-09-11T08:22:03.059Z,16.17
2022-09-11T08:24:13.168Z,16.53
2022-09-11T08:26:18.910Z,15.53
2022-09-11T08:28:21.981Z,16.20
2022-09-11T08:30:24.273Z,16.30
2022-09-11T08:32:26.400Z,16.00
2022-09-11T08:34:29.269Z,16.67
2022-09-11T08:36:31.420Z,15.83
2022-09-11T08:38:34.174Z,16.70
2022-09-11T08:40:38.158Z,16.60
2022-09-11T08:42:43.501Z,17.53
2022-09-11T08:44:49.535Z,17.20
2022-09-11T08:47:19.212Z,17.60
2022-09-11T08:49:29.676Z,16.87
2022-09-11T08:51:32.467Z,17.63
2022-09-11T08:53:36.557Z,16.73
2022-09-11T08:55:43.875Z,16.23
2022-09-11T08:57:55.652Z,15.10
2022-09-11T09:00:16.146Z,14.73
2022-09-11T09:02:29.181Z,14.60
2022-09-11T09:05:06.438Z,15.40
2022-09-11T09:07:21.227Z,16.27
2022-09-11T09:09:56.596Z,15.03
2022-09-11T09:12:41.406Z,15.57
2022-09-11T09:15:21.063Z,14.97
2022-09-11T09:18:23.775Z,16.30
2022-09-11T09:20:57.047Z,15.17
2022-09-11T09:23:02.615Z,15.50
2022-09-11T09:25:11.036Z,14.83
2022-09-11T09:27:23.327Z,15.67
2022-09-11T09:29:37.650Z,14.73
2022-09-11T09:31:42.881Z,14.23
2022-09-11T09:33:50.104Z,15.70
2022-09-11T09:35:54.327Z,15.30
2022-09-11T09:37:59.790Z,14.93
2022-09-11T09:40:06.034Z,16.20
2022-09-11T09:42:34.562Z,14.67
2022-09-11T09:44:57.508Z,16.03
2022-09-11T09:46:59.729Z,15.43
2022-09-11T09:49:02.185Z,13.60
2022-09-11T09:51:04.322Z,15.53
2022-09-11T09:53:18.143Z,15.60
2022-09-11T09:55:20.830Z,14.27
2022-09-11T09:57:36.934Z,14.87
2022-09-11T09:59:53.240Z,15.87
2022-09-11T10:01:55.442Z,15.27
2022-09-11T10:04:27.076Z,16.00
2022-09-11T10:06:29.127Z,16.07
2022-09-11T10:08:36.213Z,16.40
2022-09-11T10:10:40.499Z,16.10
2022-09-11T10:12:45.393Z,16.40
2022-09-11T10:14:58.970Z,15.13
2022-09-11T10:17:02.022Z,16.27
2022-09-11T10:19:04.248Z,15.40
2022-09-11T10:21:12.399Z,16.47
2022-09-11T10:23:29.650Z,15.27
2022-09-11T10:25:47.855Z,16.37
2022-09-11T10:27:59.410Z,16.90
2022-09-11T10:30:04.046Z,17.03
2022-09-11T10:32:06.799Z,15.43
2022-09-11T10:34:15.521Z,15.90
2022-09-11T10:36:23.678Z,16.93
2022-09-11T10:38:37.006Z,16.10
2022-09-11T10:40:47.295Z,17.07
2022-09-11T10:42:50.444Z,15.07
2022-09-11T10:44:53.739Z,14.93
2022-09-11T10:47:14.055Z,16.80
2022-09-11T10:49:21.917Z,15.70
2022-09-11T10:51:26.181Z,16.77
2022-09-11T10:53:29.011Z,15.43
2022-09-11T10:55:35.460Z,15.77
2022-09-11T10:57:44.221Z,14.70
2022-09-11T10:59:57.714Z,15.40
2022-09-11T11:01:59.823Z,15.33
2022-09-11T11:04:01.909Z,16.30
2022-09-11T11:06:45.757Z,14.83
2022-09-11T11:09:04.323Z,16.03
2022-09-11T11:11:22.341Z,15.07
2022-09-11T11:13:43.267Z,17.17
2022-09-11T11:15:58.508Z,14.20
2022-09-11T11:18:23.359Z,14.10
2022-09-11T11:20:37.563Z,15.33
2022-09-11T11:22:58.391Z,13.03
2022-09-11T11:25:08.435Z,13.47
2022-09-11T11:27:43.293Z,12.97
2022-09-11T11:30:08.775Z,12.50
2022-09-11T11:32:24.582Z,13.43
2022-09-11T11:35:01.398Z,12.63
2022-09-11T11:37:10.954Z,12.90
2022-09-11T11:39:37.415Z,12.93
2022-09-11T11:41:44.603Z,11.77
2022-09-11T11:43:48.387Z,12.63
2022-09-11T11:45:57.820Z,11.60
2022-09-11T11:48:09.175Z,11.80
2022-09-11T11:50:11.672Z,10.53
2022-09-11T11:53:10.371Z,10.70
2022-09-11T11:55:18.641Z,10.80
2022-09-11T11:57:22.388Z,11.03
2022-09-11T11:59:31.220Z,9.70
2022-09-11T12:01:37.159Z,9.10
2022-09-11T12:03:45.269Z,8.97
2022-09-11T12:05:47.777Z,9.23
2022-09-11T12:07:50.792Z,9.40
2022-09-11T12:09:57.477Z,8.37
2022-09-11T12:12:04.692Z,9.30
2022-09-11T12:14:07.512Z,8.33
2022-09-11T12:16:21.878Z,8.60
2022-09-11T12:18:25.336Z,8.30
2022-09-11T12:20:31.878Z,8.97
2022-09-11T12:22:38.583Z,9.03
2022-09-11T12:24:58.618Z,10.40
2022-09-11T12:27:35.125Z,10.20
2022-09-11T12:30:18.550Z,8.93
2022-09-11T12:32:29.088Z,9.37
2022-09-11T12:34:54.911Z,8.57
2022-09-11T12:37:06.990Z,8.70
2022-09-11T12:39:25.636Z,8.63
2022-09-11T12:41:31.530Z,8.13
2022-09-11T12:43:36.433Z,8.70
2022-09-11T12:45:38.771Z,8.60
2022-09-11T12:47:41.148Z,8.63
2022-09-11T12:49:53.075Z,7.27
2022-09-11T12:51:57.192Z,8.30
2022-09-11T12:54:05.225Z,8.80
2022-09-11T12:56:07.733Z,8.73
2022-09-11T12:58:21.679Z,8.27
2022-09-11T13:00:36.281Z,8.03
2022-09-11T13:02:42.514Z,7.90
2022-09-11T13:04:45.594Z,8.13
2022-09-11T13:06:51.945Z,8.50
2022-09-11T13:09:00.004Z,6.93
2022-09-11T13:11:40.322Z,6.90
2022-09-11T13:13:47.024Z,6.37
2022-09-11T13:15:52.487Z,7.00
2022-09-11T13:17:54.718Z,7.10
2022-09-11T13:20:09.961Z,6.80
2022-09-11T13:22:31.210Z,6.73
2022-09-11T13:24:38.859Z,7.17
2022-09-11T13:26:42.176Z,6.83
2022-09-11T13:28:46.910Z,6.60
2022-09-11T13:31:02.269Z,6.33
2022-09-11T13:33:08.979Z,6.60
2022-09-11T13:35:17.008Z,6.40
2022-09-11T13:37:32.592Z,5.70
2022-09-11T13:39:36.570Z,5.70
2022-09-11T13:41:43.772Z,6.23
2022-09-11T13:43:56.293Z,4.93
2022-09-11T13:46:15.538Z,5.03
2022-09-11T13:48:24.115Z,5.50
2022-09-11T13:50:26.271Z,5.70
2022-09-11T13:52:31.528Z,5.93
2022-09-11T13:54:38.301Z,5.60
2022-09-11T13:56:55.673Z,5.00
2022-09-11T13:59:02.238Z,5.20
2022-09-11T14:01:12.520Z,5.17
2022-09-11T14:03:29.582Z,5.43
2022-09-11T14:05:32.650Z,5.20
2022-09-11T14:07:42.714Z,5.27
2022-09-11T14:09:59.642Z,5.57
2022-09-11T14:12:05.035Z,5.17
2022-09-11T14:14:34.222Z,4.80
2022-09-11T14:16:45.752Z,5.10
2022-09-11T14:18:48.251Z,5.20
2022-09-11T14:20:50.602Z,5.53
2022-09-11T14:22:54.711Z,5.67
2022-09-11T14:25:05.432Z,5.87
2022-09-11T14:27:34.843Z,5.07
2022-09-11T14:29:37.513Z,5.17
2022-09-11T14:31:41.514Z,5.50
2022-09-11T14:33:43.850Z,5.53
2022-09-11T14:35:47.225Z,5.60
2022-09-11T14:37:49.883Z,5.60
2022-09-11T14:39:56.864Z,5.90
2022-09-11T14:41:59.980Z,5.13
2022-09-11T14:44:02.471Z,5.47
2022-09-11T14:46:04.569Z,5.60
2022-09-11T14:48:14.386Z,5.37
2022-09-11T14:50:16.796Z,4.60
2022-09-11T14:52:21.246Z,5.03
2022-09-11T14:54:23.364Z,5.47
2022-09-11T14:56:25.584Z,5.07
2022-09-11T14:58:28.621Z,4.93
2022-09-11T15:00:32.215Z,5.23
2022-09-11T15:02:34.327Z,5.50
2022-09-11T15:04:36.644Z,5.37
2022-09-11T15:06:38.671Z,5.97
2022-09-11T15:08:40.667Z,5.10
2022-09-11T15:10:42.924Z,5.17
2022-09-11T15:12:44.914Z,4.83
2022-09-11T15:14:59.107Z,4.60
2022-09-11T15:17:06.952Z,5.20
2022-09-11T15:19:09.578Z,4.77
2022-09-11T15:21:11.651Z,4.80
2022-09-11T15:23:13.857Z,4.90
2022-09-11T15:25:16.029Z,4.80
2022-09-11T15:27:19.251Z,4.83
2022-09-11T15:29:22.095Z,5.37
2022-09-11T15:31:25.072Z,4.83
2022-09-11T15:33:28.078Z,5.40
2022-09-11T15:35:32.923Z,5.50
2022-09-11T15:37:35.704Z,4.93
2022-09-11T15:39:37.849Z,5.10
2022-09-11T15:41:40.037Z,5.27
2022-09-11T15:43:44.951Z,5.30
2022-09-11T15:45:47.354Z,5.40
2022-09-11T15:47:49.398Z,4.80
2022-09-11T15:49:51.782Z,5.83
2022-09-11T15:51:54.724Z,5.40
2022-09-11T15:54:00.357Z,5.60
2022-09-11T15:56:06.454Z,6.30
2022-09-11T15:58:08.509Z,5.70
2022-09-11T16:00:11.166Z,6.30
2022-09-11T16:02:18.793Z,7.27
2022-09-11T16:04:21.941Z,5.63
2022-09-11T16:06:25.982Z,5.97
2022-09-11T16:08:28.320Z,5.90
2022-09-11T16:10:30.429Z,5.37
2022-09-11T16:12:33.769Z,6.30
2022-09-11T16:14:38.378Z,5.70
2022-09-11T16:16:40.566Z,6.10
2022-09-11T16:18:43.048Z,5.50
2022-09-11T16:20:45.111Z,5.90
2022-09-11T16:22:47.129Z,5.80
2022-09-11T16:24:49.099Z,6.27
2022-09-11T16:26:54.433Z,5.40
2022-09-11T16:28:56.755Z,6.70
2022-09-11T16:30:59.121Z,6.20
2022-09-11T16:33:02.274Z,5.77
2022-09-11T16:35:04.896Z,6.73
2022-09-11T16:37:06.912Z,6.37
2022-09-11T16:39:17.120Z,6.23
2022-09-11T16:41:22.079Z,6.87
2022-09-11T16:43:25.026Z,6.70
2022-09-11T16:45:28.502Z,7.63
2022-09-11T16:47:30.626Z,8.30
2022-09-11T16:49:50.413Z,7.77
2022-09-11T16:51:57.437Z,8.10
2022-09-11T16:53:59.719Z,8.30
2022-09-11T16:56:06.727Z,7.50
2022-09-11T16:58:09.053Z,8.07
2022-09-11T17:00:11.854Z,7.50
2022-09-11T17:02:13.847Z,6.53
2022-09-11T17:04:15.977Z,8.17
2022-09-11T17:06:21.827Z,7.50
2022-09-11T17:08:24.547Z,7.87
2022-09-11T17:10:26.707Z,7.40
2022-09-11T17:12:28.861Z,8.00
2022-09-11T17:14:31.018Z,7.40
2022-09-11T17:16:34.158Z,7.50
2022-09-11T17:18:37.274Z,8.00
2022-09-11T17:20:39.696Z,7.90
2022-09-11T17:22:41.956Z,7.00
2022-09-11T17:24:44.498Z,7.90
2022-09-11T17:26:48.201Z,7.70
2022-09-11T17:28:50.823Z,8.90
2022-09-11T17:30:52.843Z,9.40
2022-09-11T17:32:54.986Z,9.30
2022-09-11T17:34:58.594Z,9.77
2022-09-11T17:37:00.733Z,8.83
2022-09-11T17:39:03.589Z,9.03
2022-09-11T17:41:08.230Z,10.67
2022-09-11T17:43:13.021Z,8.67
2022-09-11T17:45:15.723Z,9.20
2022-09-11T17:47:17.864Z,8.67
2022-09-11T17:49:21.003Z,8.47
2022-09-11T17:51:25.257Z,8.67
2022-09-11T17:53:27.914Z,8.57
2022-09-11T17:55:31.949Z,8.90
2022-09-11T17:57:33.967Z,9.43
2022-09-11T17:59:36.822Z,8.87
2022-09-11T18:01:38.913Z,10.20
2022-09-11T18:03:40.893Z,8.83
2022-09-11T18:05:44.251Z,9.63
2022-09-11T18:07:46.941Z,8.43
2022-09-11T18:09:54.117Z,9.63
2022-09-11T18:11:58.612Z,9.23
2022-09-11T18:14:00.768Z,8.67
2022-09-11T18:16:03.700Z,8.63
2022-09-11T18:18:10.821Z,9.07
2022-09-11T18:20:15.174Z,8.87
2022-09-11T18:22:19.875Z,9.00
2022-09-11T18:24:22.027Z,9.00
2022-09-11T18:26:26.359Z,9.17
2022-09-11T18:28:29.840Z,9.23
2022-09-11T18:30:32.716Z,9.77
2022-09-11T18:32:35.002Z,9.47
2022-09-11T18:34:37.242Z,9.30
2022-09-11T18:36:39.351Z,8.60
2022-09-11T18:38:41.540Z,9.30
2022-09-11T18:40:43.550Z,8.23
2022-09-11T18:42:45.689Z,8.83
2022-09-11T18:44:47.699Z,10.73
2022-09-11T18:46:53.508Z,9.10
2022-09-11T18:48:56.137Z,9.40
2022-09-11T18:51:00.483Z,8.37
2022-09-11T18:53:03.220Z,8.07
2022-09-11T18:55:05.910Z,8.70
2022-09-11T18:57:08.299Z,9.10
2022-09-11T18:59:12.065Z,9.43
2022-09-11T19:01:22.428Z,9.03
2022-09-11T19:03:25.193Z,9.40
2022-09-11T19:05:27.543Z,9.47
2022-09-11T19:07:30.142Z,9.80
2022-09-11T19:09:32.343Z,10.40
2022-09-11T19:11:34.806Z,8.77
2022-09-11T19:13:37.406Z,9.90
2022-09-11T19:15:39.910Z,9.47
2022-09-11T19:17:42.129Z,9.13
2022-09-11T19:19:48.498Z,8.90
2022-09-11T19:21:51.543Z,9.87
2022-09-11T19:23:59.550Z,9.37
2022-09-11T19:26:07.394Z,10.40
2022-09-11T19:28:11.913Z,9.50
2022-09-11T19:30:16.332Z,9.90
2022-09-11T19:32:18.532Z,8.90
2022-09-11T19:34:21.968Z,9.80
2022-09-11T19:36:26.288Z,10.20
2022-09-11T19:38:30.975Z,9.00
2022-09-11T19:40:32.970Z,9.63
2022-09-11T19:42:35.044Z,9.07
2022-09-11T19:44:37.279Z,9.37
2022-09-11T19:46:41.717Z,10.60
2022-09-11T19:48:46.008Z,10.73
2022-09-11T19:50:48.038Z,8.93
2022-09-11T19:52:50.195Z,10.00
2022-09-11T19:54:52.366Z,9.13
2022-09-11T19:56:54.515Z,9.60
2022-09-11T19:58:56.944Z,9.63
2022-09-11T20:01:00.408Z,10.17
2022-09-11T20:03:02.858Z,11.13
2022-09-11T20:05:05.374Z,8.90
2022-09-11T20:07:07.457Z,10.07
2022-09-11T20:11:32.014Z,9.40
2022-09-11T20:13:34.862Z,10.63
2022-09-11T20:15:38.313Z,12.37
2022-09-11T20:17:41.383Z,12.00
2022-09-11T20:19:45.007Z,9.63
2022-09-11T20:21:47.183Z,10.80
2022-09-11T20:23:54.511Z,9.53
2022-09-11T20:26:17.177Z,9.37
2022-09-11T20:28:19.916Z,10.50
2022-09-11T20:30:23.084Z,10.80
2022-09-11T20:32:27.584Z,9.63
2022-09-11T20:34:31.501Z,9.83
2022-09-11T20:36:33.684Z,9.30
2022-09-11T20:38:35.986Z,10.37
2022-09-11T20:40:38.231Z,9.57
2022-09-11T20:42:40.897Z,8.93
2022-09-11T20:44:43.076Z,9.43
2022-09-11T20:46:50.758Z,9.30
2022-09-11T20:48:54.257Z,8.87
2022-09-11T20:51:10.287Z,8.87
2022-09-11T20:53:12.436Z,8.07
2022-09-11T20:55:14.510Z,7.93
2022-09-11T20:57:16.560Z,8.50
2022-09-11T20:59:18.634Z,9.13
2022-09-11T21:01:23.165Z,8.87
2022-09-11T21:03:26.213Z,7.93
2022-09-11T21:05:28.477Z,8.90
2022-09-11T21:07:31.957Z,9.20
2022-09-11T21:09:34.076Z,8.90
2022-09-11T21:11:36.431Z,8.47
2022-09-11T21:13:40.578Z,8.10
2022-09-11T21:15:44.237Z,8.70
2022-09-11T21:17:49.188Z,8.07
2022-09-11T21:19:55.448Z,7.67
2022-09-11T21:21:59.291Z,9.17
2022-09-11T21:24:04.420Z,8.30
2022-09-11T21:26:07.945Z,8.53
2022-09-11T21:28:09.961Z,8.93
2022-09-11T21:30:12.589Z,7.80
2022-09-11T21:32:14.732Z,8.43
2022-09-11T21:34:17.027Z,8.40
2022-09-11T21:36:19.150Z,9.47
2022-09-11T21:38:28.602Z,9.47
2022-09-11T21:40:31.537Z,9.10
2022-09-11T21:42:33.789Z,8.10
2022-09-11T21:44:41.776Z,8.77
2022-09-11T21:46:44.215Z,8.50
2022-09-11T21:48:46.332Z,8.80
2022-09-11T21:50:48.479Z,9.20
2022-09-11T21:52:50.455Z,8.80
2022-09-11T21:54:54.720Z,8.70
2022-09-11T21:56:56.963Z,8.70
2022-09-11T21:59:00.131Z,7.83
2022-09-11T22:01:08.432Z,8.67
2022-09-11T22:03:12.285Z,9.00
2022-09-11T22:05:14.544Z,8.67
2022-09-11T22:07:17.763Z,9.50
2022-09-11T22:09:20.818Z,8.43
2022-09-11T22:11:23.199Z,9.53
2022-09-11T22:13:25.946Z,8.70
2022-09-11T22:15:27.938Z,8.50
2022-09-11T22:17:30.089Z,9.20
2022-09-11T22:19:32.288Z,8.57
2022-09-11T22:21:34.309Z,9.20
2022-09-11T22:23:36.803Z,9.40
2022-09-11T22:25:40.332Z,9.30
2022-09-11T22:27:45.554Z,9.57
2022-09-11T22:29:47.694Z,9.70
2022-09-11T22:31:49.713Z,8.87
2022-09-11T22:33:52.914Z,9.57
2022-09-11T22:35:55.054Z,9.67
2022-09-11T22:37:57.060Z,9.43
2022-09-11T22:39:59.230Z,9.90
2022-09-11T22:42:01.286Z,9.00
2022-09-11T22:44:04.228Z,9.70
2022-09-11T22:46:06.715Z,9.77
2022-09-11T22:48:09.326Z,9.30
2022-09-11T22:50:11.374Z,9.30
2022-09-11T22:52:15.778Z,9.80
2022-09-11T22:54:18.060Z,10.17
2022-09-11T22:56:20.279Z,10.03
2022-09-11T22:58:22.946Z,9.70
2022-09-11T23:00:24.935Z,9.20
2022-09-11T23:02:27.515Z,9.50
2022-09-11T23:04:29.713Z,10.30
2022-09-11T23:06:50.352Z,10.50
2022-09-11T23:08:52.805Z,10.93
2022-09-11T23:10:54.749Z,9.60
2022-09-11T23:12:56.927Z,9.87
2022-09-11T23:14:58.894Z,11.20
2022-09-11T23:17:01.205Z,11.40
2022-09-11T23:19:05.178Z,11.37
2022-09-11T23:21:07.382Z,9.70
2022-09-11T23:23:09.570Z,11.40
2022-09-11T23:25:11.631Z,10.90
2022-09-11T23:27:13.774Z,11.53
2022-09-11T23:29:15.847Z,10.87
2022-09-11T23:31:25.143Z,10.33
2022-09-11T23:33:28.081Z,10.70
2022-09-11T23:35:30.173Z,10.10
2022-09-11T23:37:32.392Z,9.57
2022-09-11T23:39:34.838Z,10.20
2022-09-11T23:41:43.553Z,10.10
2022-09-11T23:43:45.739Z,10.30
2022-09-11T23:45:48.001Z,9.30
2022-09-11T23:47:51.037Z,10.73
2022-09-11T23:49:53.079Z,10.23
2022-09-11T23:51:55.274Z,10.70
2022-09-11T23:53:57.278Z,10.27
2022-09-11T23:55:59.459Z,9.70
2022-09-11T23:58:02.150Z,10.53
